Terminal Aerodrome Forecast
Issued by NWS

Home | Current Version | Previous Version | Text Only | Print | Product List | Glossary On
Versions: 1 2 3 4 5 6 7 8 9 10 11 12 13 14 15 16
000
FTUS42 KTAE 291120
TAFVLD
TAF
KVLD 291120Z 2912/3012 23005KT P6SM FEW015 BKN250
     FM291500 26006KT P6SM SCT040 BKN250
     FM292000 25007G12KT P6SM VCTS BKN040CB
     FM300000 25005KT P6SM BKN250=

USA.gov is the U.S. government's official web portal to all federal, state and local government web resources and services.